createdAt,value
2018-03-29T00:00:11.359Z,2.77777777778
2018-03-29T00:00:23.513Z,2.77777777778
2018-03-29T00:00:35.664Z,2.77777777778
2018-03-29T00:00:47.816Z,2.77777777778
2018-03-29T00:00:59.992Z,2.77777777778
2018-03-29T00:01:12.148Z,2.77777777778
2018-03-29T00:01:24.288Z,2.77777777778
2018-03-29T00:01:36.451Z,2.83333333333
2018-03-29T00:01:48.632Z,2.77777777778
2018-03-29T00:02:00.769Z,2.77777777778
2018-03-29T00:02:12.945Z,2.77777777778
2018-03-29T00:02:25.111Z,2.77777777778
2018-03-29T00:02:37.277Z,2.77777777778
2018-03-29T00:02:49.460Z,2.77777777778
2018-03-29T00:03:01.601Z,2.77777777778
2018-03-29T00:03:13.772Z,2.77777777778
2018-03-29T00:03:25.962Z,2.77777777778
2018-03-29T00:03:38.244Z,2.77777777778
2018-03-29T00:03:50.523Z,2.77777777778
2018-03-29T00:04:02.666Z,2.77777777778
2018-03-29T00:04:14.817Z,2.77777777778
2018-03-29T00:04:26.972Z,2.77777777778
2018-03-29T00:04:39.168Z,2.77777777778
2018-03-29T00:04:51.312Z,2.77777777778
2018-03-29T00:05:03.510Z,2.77777777778
2018-03-29T00:05:15.649Z,2.77777777778
2018-03-29T00:05:27.798Z,2.77777777778
2018-03-29T00:05:39.962Z,2.77777777778
2018-03-29T00:05:52.116Z,2.77777777778
2018-03-29T00:06:04.377Z,2.77777777778
2018-03-29T00:06:16.534Z,2.77777777778
2018-03-29T00:06:28.695Z,2.77777777778
2018-03-29T00:06:40.876Z,2.77777777778
2018-03-29T00:06:53.034Z,2.77777777778
2018-03-29T00:07:05.202Z,2.77777777778
2018-03-29T00:07:17.354Z,2.77777777778
2018-03-29T00:07:29.540Z,2.77777777778
2018-03-29T00:07:41.694Z,2.77777777778
2018-03-29T00:07:53.865Z,2.77777777778
2018-03-29T00:08:06.012Z,2.77777777778
2018-03-29T00:08:18.149Z,2.83333333333
2018-03-29T00:08:30.298Z,2.77777777778
2018-03-29T00:08:42.501Z,2.77777777778
2018-03-29T00:08:54.731Z,2.77777777778
2018-03-29T00:09:06.894Z,2.83333333333
2018-03-29T00:09:19.081Z,2.77777777778
2018-03-29T00:09:31.262Z,2.77777777778
2018-03-29T00:09:43.415Z,2.83333333333
2018-03-29T00:09:55.586Z,2.77777777778
2018-03-29T00:10:07.788Z,2.83333333333
2018-03-29T00:10:19.986Z,2.83333333333
2018-03-29T00:10:32.144Z,2.77777777778
2018-03-29T00:10:44.295Z,2.83333333333
2018-03-29T00:10:56.477Z,2.83333333333
2018-03-29T00:11:08.677Z,2.83333333333
2018-03-29T00:11:20.814Z,2.83333333333
2018-03-29T00:11:33.027Z,2.83333333333
2018-03-29T00:11:45.206Z,2.83333333333
2018-03-29T00:11:57.368Z,2.83333333333
2018-03-29T00:12:09.547Z,2.83333333333
2018-03-29T00:12:21.691Z,2.83333333333
2018-03-29T00:12:33.820Z,2.83333333333
2018-03-29T00:12:45.983Z,2.77777777778
2018-03-29T00:12:58.247Z,2.83333333333
2018-03-29T00:13:10.442Z,2.83333333333
2018-03-29T00:13:22.621Z,2.77777777778
2018-03-29T00:13:34.794Z,2.83333333333
2018-03-29T00:13:46.959Z,2.83333333333
2018-03-29T00:13:59.104Z,2.77777777778
2018-03-29T00:14:11.268Z,2.83333333333
2018-03-29T00:14:23.420Z,2.83333333333
2018-03-29T00:14:35.588Z,2.83333333333
2018-03-29T00:14:47.734Z,2.83333333333
2018-03-29T00:14:59.881Z,2.83333333333
2018-03-29T00:15:12.052Z,2.83333333333
2018-03-29T00:15:24.239Z,2.83333333333
2018-03-29T00:15:36.383Z,2.83333333333
2018-03-29T00:15:48.532Z,2.83333333333
2018-03-29T00:16:00.672Z,2.83333333333
2018-03-29T00:16:12.827Z,2.83333333333
2018-03-29T00:16:25.005Z,2.83333333333
2018-03-29T00:16:37.151Z,2.83333333333
2018-03-29T00:16:49.296Z,2.83333333333
2018-03-29T00:17:01.461Z,2.83333333333
2018-03-29T00:17:13.631Z,2.83333333333
2018-03-29T00:17:25.766Z,2.83333333333
2018-03-29T00:17:37.957Z,2.83333333333
2018-03-29T00:17:50.511Z,2.83333333333
2018-03-29T00:18:02.836Z,2.83333333333
2018-03-29T00:18:15.001Z,2.83333333333
2018-03-29T00:18:27.158Z,2.83333333333
2018-03-29T00:18:39.338Z,2.83333333333
2018-03-29T00:18:51.485Z,2.83333333333
2018-03-29T00:19:03.713Z,2.83333333333
2018-03-29T00:19:15.880Z,2.83333333333
2018-03-29T00:19:28.040Z,2.83333333333
2018-03-29T00:19:40.189Z,2.83333333333
2018-03-29T00:19:52.335Z,2.83333333333
2018-03-29T00:20:04.551Z,2.83333333333
2018-03-29T00:20:16.715Z,2.83333333333
2018-03-29T00:20:28.887Z,2.83333333333
2018-03-29T00:20:41.043Z,2.83333333333
2018-03-29T00:20:53.206Z,2.83333333333
2018-03-29T00:21:05.425Z,2.83333333333
2018-03-29T00:21:17.599Z,2.83333333333
2018-03-29T00:21:29.736Z,2.83333333333
2018-03-29T00:21:41.871Z,2.83333333333
2018-03-29T00:21:54.111Z,2.83333333333
2018-03-29T00:22:06.273Z,2.83333333333
2018-03-29T00:22:18.432Z,2.83333333333
2018-03-29T00:22:30.597Z,2.83333333333
2018-03-29T00:22:42.807Z,2.83333333333
2018-03-29T00:22:54.977Z,2.83333333333
2018-03-29T00:23:07.161Z,2.83333333333
2018-03-29T00:23:19.315Z,2.83333333333
2018-03-29T00:23:31.476Z,2.83333333333
2018-03-29T00:23:43.614Z,2.83333333333
2018-03-29T00:23:55.787Z,2.83333333333
2018-03-29T00:24:07.948Z,2.88888888889
2018-03-29T00:24:20.141Z,2.83333333333
2018-03-29T00:24:32.326Z,2.83333333333
2018-03-29T00:24:44.472Z,2.83333333333
2018-03-29T00:24:56.671Z,2.83333333333
2018-03-29T00:25:08.813Z,2.83333333333
2018-03-29T00:25:21.183Z,2.83333333333
2018-03-29T00:25:33.578Z,2.83333333333
2018-03-29T00:25:45.743Z,2.83333333333
2018-03-29T00:25:57.867Z,2.83333333333
2018-03-29T00:26:10.024Z,2.83333333333
2018-03-29T00:26:22.161Z,2.83333333333
2018-03-29T00:26:34.464Z,2.88888888889
2018-03-29T00:26:46.605Z,2.83333333333
2018-03-29T00:26:58.752Z,2.83333333333
2018-03-29T00:27:10.907Z,2.83333333333
2018-03-29T00:27:23.115Z,2.83333333333
2018-03-29T00:27:35.285Z,2.83333333333
2018-03-29T00:27:47.449Z,2.83333333333
2018-03-29T00:27:59.637Z,2.83333333333
2018-03-29T00:28:11.847Z,2.83333333333
2018-03-29T00:28:24.014Z,2.83333333333
2018-03-29T00:28:36.164Z,2.83333333333
2018-03-29T00:28:48.334Z,2.83333333333
2018-03-29T00:29:00.509Z,2.83333333333
2018-03-29T00:29:12.710Z,2.88888888889
2018-03-29T00:29:24.872Z,2.83333333333
2018-03-29T00:29:37.030Z,2.88888888889
2018-03-29T00:29:49.212Z,2.83333333333
2018-03-29T00:30:01.353Z,2.83333333333
2018-03-29T00:30:13.510Z,2.83333333333
2018-03-29T00:30:25.707Z,2.83333333333
2018-03-29T00:30:37.897Z,2.88888888889
2018-03-29T00:30:50.058Z,2.88888888889
2018-03-29T00:31:02.269Z,2.83333333333
2018-03-29T00:31:14.468Z,2.83333333333
2018-03-29T00:31:26.613Z,2.88888888889
2018-03-29T00:31:38.856Z,2.88888888889
2018-03-29T00:31:51.041Z,2.88888888889
2018-03-29T00:32:03.207Z,2.88888888889
2018-03-29T00:32:15.402Z,2.88888888889
2018-03-29T00:32:27.543Z,2.88888888889
2018-03-29T00:32:39.743Z,2.88888888889
2018-03-29T00:32:51.877Z,2.88888888889
2018-03-29T00:33:04.052Z,2.88888888889
2018-03-29T00:33:16.208Z,2.83333333333
2018-03-29T00:33:28.368Z,2.88888888889
2018-03-29T00:33:40.508Z,2.88888888889
2018-03-29T00:33:52.664Z,2.88888888889
2018-03-29T00:34:04.811Z,2.88888888889
2018-03-29T00:34:17.088Z,2.88888888889
2018-03-29T00:34:29.243Z,2.88888888889
2018-03-29T00:34:41.372Z,2.88888888889
2018-03-29T00:34:53.521Z,2.88888888889
2018-03-29T00:35:05.760Z,2.88888888889
2018-03-29T00:35:17.913Z,2.88888888889
2018-03-29T00:35:30.049Z,2.88888888889
2018-03-29T00:35:42.204Z,2.88888888889
2018-03-29T00:35:54.360Z,2.88888888889
2018-03-29T00:36:06.523Z,2.88888888889
2018-03-29T00:36:18.664Z,2.88888888889
2018-03-29T00:36:30.828Z,2.88888888889
2018-03-29T00:36:42.996Z,2.88888888889
2018-03-29T00:36:55.139Z,2.88888888889
2018-03-29T00:37:07.289Z,2.88888888889
2018-03-29T00:37:19.446Z,2.88888888889
2018-03-29T00:37:31.617Z,2.88888888889
2018-03-29T00:37:43.783Z,2.88888888889
2018-03-29T00:37:55.933Z,2.88888888889
2018-03-29T00:38:08.089Z,2.88888888889
2018-03-29T00:38:20.252Z,2.94444444444
2018-03-29T00:38:32.427Z,2.88888888889
2018-03-29T00:38:44.570Z,2.88888888889
2018-03-29T00:38:56.741Z,2.88888888889
2018-03-29T00:39:08.936Z,2.94444444444
2018-03-29T00:39:21.095Z,2.88888888889
2018-03-29T00:39:33.273Z,2.88888888889
2018-03-29T00:39:45.407Z,2.94444444444
2018-03-29T00:39:57.572Z,2.94444444444
2018-03-29T00:40:09.738Z,2.88888888889
2018-03-29T00:40:21.876Z,2.94444444444
2018-03-29T00:40:34.027Z,2.94444444444
2018-03-29T00:40:46.206Z,2.94444444444
2018-03-29T00:40:58.367Z,2.88888888889
2018-03-29T00:41:10.504Z,2.94444444444
2018-03-29T00:41:22.654Z,2.88888888889
2018-03-29T00:41:34.846Z,2.88888888889
2018-03-29T00:41:46.969Z,2.88888888889
2018-03-29T00:41:59.146Z,2.88888888889
2018-03-29T00:42:11.273Z,2.88888888889
2018-03-29T00:42:23.435Z,2.88888888889
2018-03-29T00:42:35.637Z,2.88888888889
2018-03-29T00:42:47.794Z,2.88888888889
2018-03-29T00:42:59.927Z,2.94444444444
2018-03-29T00:43:12.085Z,2.88888888889
2018-03-29T00:43:24.232Z,2.88888888889
2018-03-29T00:43:36.382Z,2.88888888889
2018-03-29T00:43:48.543Z,2.88888888889
2018-03-29T00:44:00.834Z,2.88888888889
2018-03-29T00:44:12.997Z,2.94444444444
2018-03-29T00:44:25.174Z,2.88888888889
2018-03-29T00:44:37.329Z,2.94444444444
2018-03-29T00:44:49.490Z,2.88888888889
2018-03-29T00:45:01.631Z,2.88888888889
2018-03-29T00:45:13.779Z,2.88888888889
2018-03-29T00:45:25.931Z,2.88888888889
2018-03-29T00:45:38.074Z,2.88888888889
2018-03-29T00:45:50.213Z,2.88888888889
2018-03-29T00:46:02.363Z,2.88888888889
2018-03-29T00:46:14.519Z,2.88888888889
2018-03-29T00:46:26.652Z,2.94444444444
2018-03-29T00:46:38.803Z,2.88888888889
2018-03-29T00:46:50.940Z,2.94444444444
2018-03-29T00:47:03.169Z,2.88888888889
2018-03-29T00:47:15.364Z,2.88888888889
2018-03-29T00:47:27.664Z,2.88888888889
2018-03-29T00:47:39.810Z,2.88888888889
2018-03-29T00:47:51.985Z,2.88888888889
2018-03-29T00:48:04.297Z,2.88888888889
2018-03-29T00:48:16.480Z,2.88888888889
2018-03-29T00:48:28.629Z,2.88888888889
2018-03-29T00:48:40.795Z,2.88888888889
2018-03-29T00:48:53.128Z,2.94444444444
2018-03-29T00:49:05.284Z,2.94444444444
2018-03-29T00:49:17.435Z,2.88888888889
2018-03-29T00:49:29.603Z,2.88888888889
2018-03-29T00:49:42.178Z,2.88888888889
2018-03-29T00:49:54.333Z,2.88888888889
2018-03-29T00:50:06.478Z,2.88888888889
2018-03-29T00:50:18.633Z,2.94444444444
2018-03-29T00:50:30.766Z,2.94444444444
2018-03-29T00:50:42.902Z,2.94444444444
2018-03-29T00:50:55.099Z,2.94444444444
2018-03-29T00:51:07.268Z,2.88888888889
2018-03-29T00:51:19.425Z,2.94444444444
2018-03-29T00:51:31.752Z,2.94444444444
2018-03-29T00:51:43.911Z,2.94444444444
2018-03-29T00:51:56.044Z,2.94444444444
2018-03-29T00:52:08.185Z,2.94444444444
2018-03-29T00:52:20.358Z,2.88888888889
2018-03-29T00:52:32.498Z,2.88888888889
2018-03-29T00:52:44.753Z,2.94444444444
2018-03-29T00:52:56.915Z,2.88888888889
2018-03-29T00:53:09.241Z,2.94444444444
2018-03-29T00:53:21.397Z,2.94444444444
2018-03-29T00:53:33.551Z,2.94444444444
2018-03-29T00:53:45.694Z,2.88888888889
2018-03-29T00:53:57.846Z,2.94444444444
2018-03-29T00:54:09.999Z,2.94444444444
2018-03-29T00:54:22.151Z,2.94444444444
2018-03-29T00:54:34.427Z,2.94444444444
2018-03-29T00:54:46.595Z,2.88888888889
2018-03-29T00:54:58.878Z,2.94444444444
2018-03-29T00:55:11.050Z,2.88888888889
2018-03-29T00:55:23.202Z,2.94444444444
2018-03-29T00:55:35.360Z,2.94444444444
2018-03-29T00:55:47.510Z,2.88888888889
2018-03-29T00:55:59.681Z,2.94444444444
2018-03-29T00:56:11.845Z,2.94444444444
2018-03-29T00:56:23.997Z,2.94444444444
2018-03-29T00:56:36.166Z,2.94444444444
2018-03-29T00:56:48.334Z,2.94444444444
2018-03-29T00:57:00.473Z,2.94444444444
2018-03-29T00:57:12.790Z,2.94444444444
2018-03-29T00:57:24.931Z,2.88888888889
2018-03-29T00:57:37.058Z,2.94444444444
2018-03-29T00:57:49.228Z,2.88888888889
2018-03-29T00:58:01.389Z,2.94444444444
2018-03-29T00:58:13.540Z,2.94444444444
2018-03-29T00:58:25.684Z,2.94444444444
2018-03-29T00:58:37.864Z,2.94444444444
2018-03-29T00:58:50.021Z,2.88888888889
2018-03-29T00:59:02.173Z,2.94444444444
2018-03-29T00:59:14.334Z,2.94444444444
2018-03-29T00:59:26.476Z,2.94444444444
2018-03-29T00:59:38.621Z,2.94444444444
2018-03-29T00:59:50.749Z,2.94444444444
2018-03-29T01:00:02.929Z,2.94444444444
2018-03-29T01:00:15.280Z,2.94444444444
2018-03-29T01:00:27.473Z,2.94444444444
2018-03-29T01:00:39.601Z,2.94444444444
2018-03-29T01:00:51.755Z,2.94444444444
2018-03-29T01:01:03.920Z,2.94444444444
2018-03-29T01:01:16.107Z,2.94444444444
2018-03-29T01:01:28.326Z,2.94444444444
2018-03-29T01:01:40.504Z,2.88888888889
2018-03-29T01:01:52.727Z,2.94444444444
2018-03-29T01:02:04.905Z,2.94444444444
2018-03-29T01:02:17.062Z,2.94444444444
2018-03-29T01:02:29.242Z,2.94444444444
2018-03-29T01:02:41.403Z,2.94444444444
2018-03-29T01:02:53.558Z,2.94444444444
2018-03-29T01:03:05.721Z,2.88888888889
2018-03-29T01:03:17.864Z,2.94444444444
2018-03-29T01:03:30.067Z,2.94444444444
2018-03-29T01:03:42.533Z,2.94444444444
2018-03-29T01:03:54.738Z,2.94444444444
2018-03-29T01:04:06.911Z,2.94444444444
2018-03-29T01:04:19.080Z,2.94444444444
2018-03-29T01:04:31.267Z,2.94444444444
2018-03-29T01:04:43.432Z,2.94444444444
2018-03-29T01:04:55.586Z,2.94444444444
2018-03-29T01:05:07.769Z,2.94444444444
2018-03-29T01:05:19.923Z,2.94444444444
2018-03-29T01:05:32.060Z,2.94444444444
2018-03-29T01:05:44.199Z,2.94444444444
2018-03-29T01:05:56.356Z,2.94444444444
2018-03-29T01:06:08.514Z,2.94444444444
2018-03-29T01:06:20.656Z,2.94444444444
2018-03-29T01:06:32.828Z,2.94444444444
2018-03-29T01:06:45.050Z,2.94444444444
2018-03-29T01:06:57.211Z,2.94444444444
2018-03-29T01:07:09.353Z,2.94444444444
2018-03-29T01:07:21.501Z,2.94444444444
2018-03-29T01:07:33.711Z,2.94444444444
2018-03-29T01:07:45.863Z,2.94444444444
2018-03-29T01:07:58.115Z,2.94444444444
2018-03-29T01:08:10.294Z,2.94444444444
2018-03-29T01:08:22.439Z,2.94444444444
2018-03-29T01:08:34.584Z,3
2018-03-29T01:08:46.726Z,2.94444444444
2018-03-29T01:08:58.887Z,2.94444444444
2018-03-29T01:09:11.069Z,2.94444444444
2018-03-29T01:09:23.276Z,2.94444444444
2018-03-29T01:09:35.448Z,2.94444444444
2018-03-29T01:09:47.718Z,2.94444444444
2018-03-29T01:09:59.858Z,2.94444444444
2018-03-29T01:10:12.000Z,2.94444444444
2018-03-29T01:10:24.147Z,2.94444444444
2018-03-29T01:10:36.292Z,2.94444444444
2018-03-29T01:10:48.461Z,3
2018-03-29T01:11:00.603Z,2.94444444444
2018-03-29T01:11:12.799Z,2.94444444444
2018-03-29T01:11:24.949Z,2.94444444444
2018-03-29T01:11:37.121Z,2.94444444444
2018-03-29T01:11:49.240Z,3
2018-03-29T01:12:01.489Z,3
2018-03-29T01:12:13.712Z,2.94444444444
2018-03-29T01:12:25.865Z,3
2018-03-29T01:12:38.001Z,2.94444444444
2018-03-29T01:12:50.150Z,3
2018-03-29T01:13:02.561Z,3
2018-03-29T01:13:14.725Z,3
2018-03-29T01:13:26.888Z,2.94444444444
2018-03-29T01:13:39.055Z,2.94444444444
2018-03-29T01:13:51.201Z,2.94444444444
2018-03-29T01:14:03.354Z,3
2018-03-29T01:14:15.492Z,3
2018-03-29T01:14:27.659Z,3
2018-03-29T01:14:39.826Z,2.94444444444
2018-03-29T01:14:51.974Z,3
2018-03-29T01:15:04.121Z,2.94444444444
2018-03-29T01:15:16.264Z,3
2018-03-29T01:15:28.408Z,3
2018-03-29T01:15:40.532Z,3
2018-03-29T01:15:52.689Z,3
2018-03-29T01:16:04.845Z,3
2018-03-29T01:16:17.006Z,3
2018-03-29T01:16:29.155Z,3
2018-03-29T01:16:41.330Z,3
2018-03-29T01:16:53.486Z,3
2018-03-29T01:17:05.717Z,3
2018-03-29T01:17:17.851Z,3
2018-03-29T01:17:30.022Z,3
2018-03-29T01:17:42.167Z,3
2018-03-29T01:17:54.664Z,3
2018-03-29T01:18:06.861Z,3
2018-03-29T01:18:19.045Z,3
2018-03-29T01:18:31.206Z,3
2018-03-29T01:18:43.365Z,3
2018-03-29T01:18:55.518Z,3
2018-03-29T01:19:07.697Z,3
2018-03-29T01:19:19.823Z,3
2018-03-29T01:19:32.003Z,3
2018-03-29T01:19:44.163Z,3
2018-03-29T01:19:56.344Z,3
2018-03-29T01:20:08.527Z,3
2018-03-29T01:20:20.734Z,3
2018-03-29T01:20:32.892Z,3
2018-03-29T01:20:45.259Z,3
2018-03-29T01:20:57.411Z,3
2018-03-29T01:21:09.589Z,3
2018-03-29T01:21:21.748Z,3
2018-03-29T01:21:33.919Z,3
2018-03-29T01:21:46.078Z,3
2018-03-29T01:21:58.230Z,3
2018-03-29T01:22:10.386Z,3
2018-03-29T01:22:22.557Z,3
2018-03-29T01:22:34.700Z,3
2018-03-29T01:22:46.846Z,3
2018-03-29T01:22:59.057Z,3.05555555556
2018-03-29T01:23:11.208Z,3
2018-03-29T01:23:23.363Z,3
2018-03-29T01:23:35.512Z,3
2018-03-29T01:23:47.704Z,3
2018-03-29T01:23:59.840Z,3
2018-03-29T01:24:12.051Z,3
2018-03-29T01:24:24.235Z,3
2018-03-29T01:24:36.383Z,3
2018-03-29T01:24:48.585Z,3.05555555556
2018-03-29T01:25:00.779Z,3
2018-03-29T01:25:12.938Z,3
2018-03-29T01:25:25.098Z,3
2018-03-29T01:25:37.243Z,3
2018-03-29T01:25:49.457Z,3
2018-03-29T01:26:01.659Z,3.05555555556
2018-03-29T01:26:13.803Z,3.05555555556
2018-03-29T01:26:26.023Z,3
2018-03-29T01:26:38.347Z,3
2018-03-29T01:26:50.519Z,3
2018-03-29T01:27:02.689Z,3.05555555556
2018-03-29T01:27:14.885Z,3
2018-03-29T01:27:27.015Z,3.05555555556
2018-03-29T01:27:39.165Z,3.05555555556
2018-03-29T01:27:51.320Z,3.05555555556
2018-03-29T01:28:03.503Z,3.05555555556
2018-03-29T01:28:15.637Z,3.05555555556
2018-03-29T01:28:27.796Z,3
2018-03-29T01:28:39.926Z,3.05555555556
2018-03-29T01:28:52.053Z,3.05555555556
2018-03-29T01:29:04.222Z,3.05555555556
2018-03-29T01:29:16.373Z,3.05555555556
2018-03-29T01:29:28.531Z,3.05555555556
2018-03-29T01:29:40.670Z,3.05555555556
2018-03-29T01:29:52.820Z,3.05555555556
2018-03-29T01:30:04.977Z,3.05555555556
2018-03-29T01:30:17.121Z,3.05555555556
2018-03-29T01:30:29.271Z,3
2018-03-29T01:30:41.429Z,3.05555555556
2018-03-29T01:30:53.615Z,3.05555555556
2018-03-29T01:31:05.789Z,3
2018-03-29T01:31:17.940Z,3.05555555556
2018-03-29T01:31:30.173Z,3
2018-03-29T01:31:42.351Z,3.05555555556
2018-03-29T01:31:54.523Z,3.05555555556
2018-03-29T01:32:06.815Z,3.05555555556
2018-03-29T01:32:18.995Z,3.05555555556
2018-03-29T01:32:31.166Z,3.05555555556
2018-03-29T01:32:43.332Z,3.05555555556
2018-03-29T01:32:55.485Z,3.05555555556
2018-03-29T01:33:07.667Z,3.05555555556
2018-03-29T01:33:19.826Z,3.05555555556
2018-03-29T01:33:31.970Z,3.05555555556
2018-03-29T01:33:44.126Z,3.05555555556
2018-03-29T01:33:56.281Z,3.05555555556
2018-03-29T01:34:08.437Z,3.05555555556
2018-03-29T01:34:20.593Z,3.05555555556
2018-03-29T01:34:32.742Z,3.05555555556
2018-03-29T01:34:44.875Z,3.05555555556
2018-03-29T01:34:57.025Z,3.05555555556
2018-03-29T01:35:09.188Z,3.05555555556
2018-03-29T01:35:21.363Z,3.05555555556
2018-03-29T01:35:33.527Z,3.11111111111
2018-03-29T01:35:45.683Z,3.05555555556
2018-03-29T01:35:57.825Z,3.05555555556
2018-03-29T01:36:10.000Z,3.05555555556
2018-03-29T01:36:22.182Z,3.05555555556
2018-03-29T01:36:34.390Z,3.05555555556
2018-03-29T01:36:46.552Z,3.11111111111
2018-03-29T01:36:58.726Z,3.11111111111
2018-03-29T01:37:10.919Z,3.05555555556
2018-03-29T01:37:23.060Z,3.05555555556
2018-03-29T01:37:35.208Z,3.05555555556
2018-03-29T01:37:47.360Z,3.11111111111
2018-03-29T01:37:59.503Z,3.05555555556
2018-03-29T01:38:11.666Z,3.05555555556
2018-03-29T01:38:23.831Z,3.11111111111
2018-03-29T01:38:36.042Z,3.05555555556
2018-03-29T01:38:48.189Z,3.11111111111
2018-03-29T01:39:00.344Z,3.05555555556
2018-03-29T01:39:12.546Z,3.11111111111
2018-03-29T01:39:24.830Z,3.11111111111
2018-03-29T01:39:36.973Z,3.11111111111
2018-03-29T01:39:49.111Z,3.05555555556
2018-03-29T01:40:01.258Z,3.11111111111
2018-03-29T01:40:13.410Z,3.11111111111
2018-03-29T01:40:25.557Z,3.11111111111
2018-03-29T01:40:37.723Z,3.05555555556
2018-03-29T01:40:49.926Z,3.11111111111
2018-03-29T01:41:02.092Z,3.11111111111
2018-03-29T01:41:14.288Z,3.11111111111
2018-03-29T01:41:26.447Z,3.05555555556
2018-03-29T01:41:38.597Z,3.11111111111
2018-03-29T01:41:50.755Z,3.11111111111
2018-03-29T01:42:02.992Z,3.11111111111
2018-03-29T01:42:15.166Z,3.11111111111
2018-03-29T01:42:27.321Z,3.11111111111
2018-03-29T01:42:39.462Z,3.11111111111
2018-03-29T01:42:51.602Z,3.11111111111
2018-03-29T01:43:03.757Z,3.11111111111
2018-03-29T01:43:15.922Z,3.11111111111
2018-03-29T01:43:28.106Z,3.11111111111
2018-03-29T01:43:40.260Z,3.11111111111
2018-03-29T01:43:52.406Z,3.11111111111
2018-03-29T01:44:04.548Z,3.11111111111
2018-03-29T01:44:16.671Z,3.11111111111
2018-03-29T01:44:28.822Z,3.11111111111
2018-03-29T01:44:41.002Z,3.11111111111
2018-03-29T01:44:53.174Z,3.11111111111
2018-03-29T01:45:05.361Z,3.11111111111
2018-03-29T01:45:17.506Z,3.16666666667
2018-03-29T01:45:29.673Z,3.11111111111
2018-03-29T01:45:41.830Z,3.11111111111
2018-03-29T01:45:53.973Z,3.11111111111
2018-03-29T01:46:06.144Z,3.11111111111
2018-03-29T01:46:18.286Z,3.11111111111
2018-03-29T01:46:30.453Z,3.11111111111
2018-03-29T01:46:42.622Z,3.11111111111
2018-03-29T01:46:54.777Z,3.11111111111
2018-03-29T01:47:06.956Z,3.11111111111
2018-03-29T01:47:19.131Z,3.16666666667
2018-03-29T01:47:31.262Z,3.11111111111
2018-03-29T01:47:43.408Z,3.11111111111
2018-03-29T01:47:55.691Z,3.11111111111
2018-03-29T01:48:07.874Z,3.11111111111
2018-03-29T01:48:20.015Z,3.16666666667
2018-03-29T01:48:32.176Z,3.11111111111
2018-03-29T01:48:44.305Z,3.11111111111
2018-03-29T01:48:56.597Z,3.11111111111
2018-03-29T01:49:08.752Z,3.11111111111
2018-03-29T01:49:20.914Z,3.11111111111
2018-03-29T01:49:33.058Z,3.16666666667
2018-03-29T01:49:45.194Z,3.16666666667
2018-03-29T01:49:57.408Z,3.16666666667
2018-03-29T01:50:09.587Z,3.16666666667
2018-03-29T01:50:21.753Z,3.11111111111
2018-03-29T01:50:33.984Z,3.16666666667
2018-03-29T01:50:46.139Z,3.11111111111
2018-03-29T01:50:58.286Z,3.16666666667
2018-03-29T01:51:10.444Z,3.16666666667
2018-03-29T01:51:22.648Z,3.16666666667
2018-03-29T01:51:34.822Z,3.16666666667
2018-03-29T01:51:47.015Z,3.16666666667
2018-03-29T01:51:59.169Z,3.16666666667
2018-03-29T01:52:11.380Z,3.16666666667
2018-03-29T01:52:23.520Z,3.16666666667
2018-03-29T01:52:35.695Z,3.16666666667
2018-03-29T01:52:47.837Z,3.16666666667
2018-03-29T01:52:59.984Z,3.16666666667
2018-03-29T01:53:12.319Z,3.16666666667
2018-03-29T01:53:24.483Z,3.16666666667
2018-03-29T01:53:36.640Z,3.16666666667
2018-03-29T01:53:48.807Z,3.16666666667
2018-03-29T01:54:00.958Z,3.16666666667
2018-03-29T01:54:13.110Z,3.16666666667
2018-03-29T01:54:25.247Z,3.16666666667
2018-03-29T01:54:37.383Z,3.16666666667
2018-03-29T01:54:49.779Z,3.16666666667
2018-03-29T01:55:02.081Z,3.16666666667
2018-03-29T01:55:14.220Z,3.16666666667
2018-03-29T01:55:26.370Z,3.16666666667
2018-03-29T01:55:38.564Z,3.16666666667
2018-03-29T01:55:50.746Z,3.16666666667
2018-03-29T01:56:02.891Z,3.16666666667
2018-03-29T01:56:15.032Z,3.16666666667
2018-03-29T01:56:27.194Z,3.16666666667
2018-03-29T01:56:39.338Z,3.16666666667
2018-03-29T01:56:51.493Z,3.22222222222
2018-03-29T01:57:03.664Z,3.16666666667
2018-03-29T01:57:15.827Z,3.22222222222
2018-03-29T01:57:27.990Z,3.22222222222
2018-03-29T01:57:40.178Z,3.22222222222
2018-03-29T01:57:52.339Z,3.22222222222
2018-03-29T01:58:04.500Z,3.16666666667
2018-03-29T01:58:16.695Z,3.22222222222
2018-03-29T01:58:28.852Z,3.22222222222
2018-03-29T01:58:41.000Z,3.22222222222
2018-03-29T01:58:53.151Z,3.22222222222
2018-03-29T01:59:05.297Z,3.22222222222
2018-03-29T01:59:17.472Z,3.22222222222
2018-03-29T01:59:29.644Z,3.22222222222
2018-03-29T01:59:41.809Z,3.22222222222
2018-03-29T01:59:54.009Z,3.22222222222
2018-03-29T02:00:06.164Z,3.22222222222
2018-03-29T02:00:18.365Z,3.22222222222
2018-03-29T02:00:30.549Z,3.22222222222
2018-03-29T02:00:42.705Z,3.22222222222
2018-03-29T02:00:54.878Z,3.22222222222
2018-03-29T02:01:07.295Z,3.22222222222
2018-03-29T02:01:19.479Z,3.27777777778
2018-03-29T02:01:31.652Z,3.22222222222
2018-03-29T02:01:43.820Z,3.27777777778
2018-03-29T02:01:55.964Z,3.22222222222
2018-03-29T02:02:08.118Z,3.27777777778
2018-03-29T02:02:20.280Z,3.22222222222
2018-03-29T02:02:32.444Z,3.27777777778
2018-03-29T02:02:44.621Z,3.27777777778
2018-03-29T02:02:56.762Z,3.27777777778
2018-03-29T02:03:08.927Z,3.22222222222
2018-03-29T02:03:21.068Z,3.27777777778
2018-03-29T02:03:33.217Z,3.27777777778
2018-03-29T02:03:45.577Z,3.22222222222
2018-03-29T02:03:57.735Z,3.27777777778
2018-03-29T02:04:09.899Z,3.27777777778
2018-03-29T02:04:22.098Z,3.27777777778
2018-03-29T02:04:34.324Z,3.27777777778
2018-03-29T02:04:46.480Z,3.27777777778
2018-03-29T02:04:58.648Z,3.27777777778
2018-03-29T02:05:10.796Z,3.27777777778
2018-03-29T02:05:22.948Z,3.27777777778
2018-03-29T02:05:35.128Z,3.27777777778
2018-03-29T02:05:47.281Z,3.27777777778
2018-03-29T02:05:59.490Z,3.27777777778
2018-03-29T02:06:11.666Z,3.27777777778
2018-03-29T02:06:23.816Z,3.27777777778
2018-03-29T02:06:35.964Z,3.27777777778
2018-03-29T02:06:48.109Z,3.27777777778
2018-03-29T02:07:00.287Z,3.27777777778
2018-03-29T02:07:12.473Z,3.27777777778
2018-03-29T02:07:24.683Z,3.27777777778
2018-03-29T02:07:36.833Z,3.27777777778
2018-03-29T02:07:49.278Z,3.27777777778
2018-03-29T02:08:01.522Z,3.27777777778
2018-03-29T02:08:13.667Z,3.27777777778
2018-03-29T02:08:25.818Z,3.27777777778
2018-03-29T02:08:37.955Z,3.27777777778
2018-03-29T02:08:50.162Z,3.27777777778
2018-03-29T02:09:02.319Z,3.27777777778